Weather at Hrauneyjarfoss Heliport

Public forecast

Using degrees Celsius for public forecast. Weather courtesy of forecast.io.

Closest aviation weather report (METAR) to Hrauneyjarfoss Heliport

Report is more than 2 hours old.

Closest report is Vestmannaeyjar Airport, 53.9 nm (99.9 km) SSW. Retrieved 2021/06/19 17:00 UTC (5 hours ago):

BIVM 191700Z 28008KT 9999 FEW021 09/05 Q1012

Closest aviation forecast (TAF) to Hrauneyjarfoss Heliport

Closest forecast is Reykjavik Airport, 70.4 nm (130.4 km) W. Retrieved 2021/06/19 21:48 UTC (35 minutes ago):

TAF BIRK 191943Z 1921/2021 33016KT 9999 SCT035 BKN050 TX10/2015Z TN04/2001Z BECMG 2016/2018 27012KT